YBID weather

Binda
New South Wales, Australia

Public forecast

Using degrees Celsius for public forecast. Weather courtesy of forecast.io.

Closest aviation weather report (METAR) to Binda

Closest report is Canberra International Airport, 60.8 nm (112.6 km) S. Retrieved 2020/04/05 07:30 UTC (20 minutes ago):

YSCB 050730Z AUTO 32016KT 9999 // BKN037 OVC043 OVC048 12/07 Q1014

Closest aviation forecast (TAF) to Binda

Forecast is more than 12 hours old.

Closest forecast is Canberra International Airport, 60.8 nm (112.6 km) S. Retrieved 2020/04/04 18:00 UTC (14 hours ago):

TAF YSCB 041652Z 0418/0518 33014KT 9999 -SHRA BKN030 FM042200 29018G30KT 9999 SCT040 FM051000 30015KT 9999 -SHRA SCT020 BKN030